Champaign, Illinois
Current Conditions -  °F | °C
As of 12:53 PM on Tuesday 21 Oct 2014 (Local Time) from KCMI Reporting Station
Broken Clouds Broken Clouds  
Wind Chill: 60°   Ceiling: 4300
Heat Index: 60°   Visibility: 10mi
Dew Point: 39°   Wind: 10mph
Humidity: 46%   Direction: 360°N
Pressure: 30.14"   Gusts: 20mph
Location:  40.11°N, 88.24°W
Report Text: KCMI 211753Z 36009G17KT 10SM BKN043 16/04 A3014 RMK AO2 RAB20E29 SLP207 P0000 60000 T01560039 10156 20061 50002 $
Loading
Personal Weather Stations






























Interactive Weather Map New forecast layout! Learn more

10-Day Weather Forecast

Advertisements
Track Severe Weather on mobile